Lenghu, China
Current Conditions -  °F | °C
As of 6:30 PM on Tuesday 21 Oct 2014 (Local Time) from ZWWW Reporting Station
Sand / Dust Storm Sand / Dust Storm  
Wind Chill: 70°   Ceiling: Unl
Heat Index: 70°   Visibility: 2.5mi
Dew Point: 37°   Wind: 16mph
Humidity: 31%   Direction: 290°WNW
Pressure: 30.03"   Gusts: NA
Location:  38.83°N, 93.38°E
Report Text: ZWWW 211030Z 29007MPS 4000 SA NSC 21/03 Q1017 BECMG TL110029012MPS
Loading
Personal Weather Stations






























Interactive Weather Map
Tropical Storm Tracking
New forecast layout! Learn more

10-Day Weather Forecast

Advertisements
Track Severe Weather on mobile